Time;durP1;ratioP1;P1;durP2;ratioP2;P2;SDS_P1;SDS_P2;PMS_P1;PMS_P2;Temp;Humidity;BMP_temperature;BMP_pressure;BME280_temperature;BME280_humidity;BME280_pressure;Samples;Min_cycle;Max_cycle;Signal;HPM_P1;HPM_P2
2021/01/31 00:00:16;;;;;;;18.40;13.00;;;;;;;1.06;100.00;94574.94;5025067;28;20148;-47
2021/01/31 00:02:45;;;;;;;18.38;13.48;;;;;;;1.03;100.00;94581.22;5028718;28;20053;-45
2021/01/31 00:05:14;;;;;;;20.75;13.93;;;;;;;0.99;100.00;94579.84;5018521;28;20455;-49
2021/01/31 00:07:42;;;;;;;15.68;10.35;;;;;;;0.99;100.00;94581.63;5027794;28;20053;-50
2021/01/31 00:10:11;;;;;;;18.90;12.52;;;;;;;0.99;100.00;94574.66;5026266;28;20046;-43
2021/01/31 00:12:39;;;;;;;14.68;10.75;;;;;;;0.94;100.00;94582.84;5031699;28;20118;-48
2021/01/31 00:15:08;;;;;;;15.15;10.90;;;;;;;0.85;100.00;94583.63;5042198;28;20052;-44
2021/01/31 00:17:35;;;;;;;6.35;3.95;;;;;;;0.87;100.00;94580.94;5026705;28;20099;-46
2021/01/31 00:20:04;;;;;;;9.43;6.55;;;;;;;0.92;100.00;94584.75;5025160;28;20045;-49
2021/01/31 00:22:32;;;;;;;14.63;10.02;;;;;;;0.92;100.00;94578.75;5026828;28;20527;-47
2021/01/31 00:24:59;;;;;;;8.70;4.85;;;;;;;0.91;100.00;94584.91;5027492;28;20125;-48
2021/01/31 00:27:26;;;;;;;13.15;9.30;;;;;;;0.92;100.00;94592.53;5027349;28;20072;-48
2021/01/31 00:29:53;;;;;;;20.38;15.02;;;;;;;0.94;100.00;94582.03;5026847;28;20103;-46
2021/01/31 00:32:22;;;;;;;17.83;11.52;;;;;;;0.93;100.00;94591.59;5024274;28;20077;-46
2021/01/31 00:34:49;;;;;;;15.10;10.07;;;;;;;0.91;100.00;94587.50;5027536;28;20119;-49
2021/01/31 00:37:18;;;;;;;15.85;10.82;;;;;;;0.94;100.00;94589.81;5019935;28;20042;-44
2021/01/31 00:39:47;;;;;;;15.88;10.60;;;;;;;0.95;100.00;94594.88;5025390;28;20800;-51
2021/01/31 00:42:16;;;;;;;19.60;13.00;;;;;;;0.91;100.00;94590.09;5023613;28;20435;-50
2021/01/31 00:44:48;;;;;;;13.10;8.65;;;;;;;0.85;100.00;94594.00;5025700;28;20042;-45
2021/01/31 00:47:15;;;;;;;14.00;8.77;;;;;;;0.80;100.00;94590.19;5008448;28;20100;-46
2021/01/31 00:49:47;;;;;;;20.30;14.15;;;;;;;0.84;100.00;94594.16;5023980;28;20488;-44
2021/01/31 00:52:15;;;;;;;21.33;17.17;;;;;;;0.71;100.00;94589.19;5039038;28;20091;-50
2021/01/31 00:54:44;;;;;;;22.77;16.02;;;;;;;0.71;100.00;94599.56;5020621;28;20420;-50
2021/01/31 00:57:13;;;;;;;17.08;11.80;;;;;;;0.75;100.00;94598.34;5033765;28;20037;-51
2021/01/31 00:59:40;;;;;;;18.10;11.50;;;;;;;0.69;100.00;94599.72;5039650;28;20041;-46
2021/01/31 01:02:10;;;;;;;18.08;11.50;;;;;;;0.63;100.00;94597.63;5014286;28;20507;-49
2021/01/31 01:04:39;;;;;;;19.63;13.57;;;;;;;0.65;100.00;94600.06;5027944;28;20095;-46
2021/01/31 01:07:10;;;;;;;20.55;13.27;;;;;;;0.68;100.00;94602.41;5039373;28;20107;-45
2021/01/31 01:09:37;;;;;;;20.63;13.52;;;;;;;0.67;100.00;94601.59;5029389;28;20065;-49
2021/01/31 01:12:06;;;;;;;21.02;13.95;;;;;;;0.74;100.00;94608.88;5024954;28;20124;-45
2021/01/31 01:14:34;;;;;;;18.58;11.35;;;;;;;0.67;100.00;94616.34;5025708;28;20570;-50
2021/01/31 01:17:03;;;;;;;26.33;16.95;;;;;;;0.68;100.00;94615.38;5012582;28;20072;-47
2021/01/31 01:19:30;;;;;;;22.48;15.68;;;;;;;0.66;100.00;94619.91;5023475;28;20045;-46
2021/01/31 01:21:57;;;;;;;23.10;15.35;;;;;;;0.72;100.00;94624.53;5029670;28;20056;-47
2021/01/31 01:24:24;;;;;;;19.38;13.20;;;;;;;0.66;100.00;94612.94;5022412;28;20037;-49
2021/01/31 01:26:52;;;;;;;25.35;16.88;;;;;;;0.61;100.00;94619.44;5029410;28;20072;-47
2021/01/31 01:29:20;;;;;;;22.02;14.25;;;;;;;0.63;100.00;94623.56;5027523;28;20047;-45
2021/01/31 01:31:47;;;;;;;22.98;15.73;;;;;;;0.61;100.00;94622.84;5029268;28;20080;-47
2021/01/31 01:34:15;;;;;;;23.85;18.05;;;;;;;0.40;100.00;94615.13;5040216;28;20396;-45
2021/01/31 01:36:43;;;;;;;23.88;16.73;;;;;;;0.36;100.00;94613.72;5029264;28;20053;-49
2021/01/31 01:39:12;;;;;;;14.02;8.93;;;;;;;0.33;100.00;94623.53;5021303;28;20520;-47
2021/01/31 01:41:41;;;;;;;14.68;9.55;;;;;;;0.28;100.00;94617.94;5030430;28;20555;-50
2021/01/31 01:44:08;;;;;;;14.65;10.90;;;;;;;0.26;100.00;94615.44;5027840;28;20049;-48
2021/01/31 01:46:42;;;;;;;24.25;17.55;;;;;;;0.30;100.00;94619.41;5030529;28;20068;-46
2021/01/31 01:49:14;;;;;;;19.17;11.27;;;;;;;0.35;100.00;94619.88;5016372;28;20526;-46
2021/01/31 01:51:44;;;;;;;26.90;19.40;;;;;;;0.35;100.00;94624.25;5040665;28;20049;-47
2021/01/31 01:54:19;;;;;;;27.23;15.40;;;;;;;0.38;100.00;94619.63;5021273;28;20042;-49
2021/01/31 01:56:53;;;;;;;12.48;7.35;;;;;;;0.33;100.00;94623.53;5028268;28;20057;-46
2021/01/31 01:59:20;;;;;;;27.40;18.92;;;;;;;0.35;100.00;94626.84;5027086;28;20041;-45
2021/01/31 02:01:58;;;;;;;26.33;15.88;;;;;;;0.41;100.00;94626.31;5025584;28;20053;-45
2021/01/31 02:04:29;;;;;;;17.25;10.77;;;;;;;0.37;100.00;94632.69;5019996;28;20132;-44
2021/01/31 02:06:58;;;;;;;26.48;16.08;;;;;;;0.34;100.00;94628.59;5030472;28;20045;-49
2021/01/31 02:09:25;;;;;;;29.88;18.77;;;;;;;0.27;100.00;94637.00;5026193;28;20064;-43
2021/01/31 02:11:53;;;;;;;31.95;20.73;;;;;;;0.27;100.00;94634.41;5029221;28;20045;-45
2021/01/31 02:14:20;;;;;;;22.23;12.68;;;;;;;0.27;100.00;94637.81;5027362;28;20050;-45
2021/01/31 02:16:54;;;;;;;34.50;21.02;;;;;;;0.16;100.00;94635.31;5028377;28;20045;-46
2021/01/31 02:20:03;;;;;;;28.35;19.83;;;;;;;0.14;100.00;94645.81;5013500;28;20042;-45
2021/01/31 02:22:57;;;;;;;29.98;17.08;;;;;;;0.05;100.00;94633.59;5027571;28;20049;-47
2021/01/31 02:25:58;;;;;;;23.08;14.13;;;;;;;0.07;100.00;94628.28;5026835;28;20060;-45
2021/01/31 02:28:47;;;;;;;30.67;21.73;;;;;;;-0.03;100.00;94644.59;4963686;28;20051;-46
2021/01/31 02:31:51;;;;;;;27.65;18.52;;;;;;;0.03;100.00;94645.03;5019512;28;20052;-48
2021/01/31 02:34:23;;;;;;;18.38;11.13;;;;;;;0.06;100.00;94644.78;5022375;28;20054;-44
2021/01/31 02:37:00;;;;;;;25.02;16.50;;;;;;;0.00;100.00;94643.53;5027899;28;20045;-46
2021/01/31 02:39:39;;;;;;;19.67;11.80;;;;;;;0.00;100.00;94638.34;5028182;28;20049;-48
2021/01/31 02:42:21;;;;;;;27.10;17.52;;;;;;;0.06;100.00;94640.41;5025334;28;20056;-44
2021/01/31 02:44:57;;;;;;;32.47;21.00;;;;;;;0.06;100.00;94637.00;5027939;28;20080;-52
2021/01/31 02:47:25;;;;;;;30.13;18.08;;;;;;;0.07;100.00;94642.06;5025619;28;20038;-49
2021/01/31 02:49:57;;;;;;;30.58;19.85;;;;;;;-0.03;100.00;94641.19;5028857;28;20646;-45
2021/01/31 02:52:29;;;;;;;30.15;20.80;;;;;;;-0.07;100.00;94648.38;5024505;28;20727;-46
2021/01/31 02:55:01;;;;;;;29.85;18.08;;;;;;;-0.07;100.00;94648.38;5029484;28;20049;-47
2021/01/31 02:57:34;;;;;;;28.83;17.63;;;;;;;-0.09;100.00;94649.44;5001066;28;20635;-48
2021/01/31 03:00:09;;;;;;;26.00;16.40;;;;;;;-0.12;100.00;94641.91;5008304;28;20046;-46
2021/01/31 03:02:38;;;;;;;23.45;14.05;;;;;;;-0.07;100.00;94645.78;5006635;28;20046;-45
2021/01/31 03:05:12;;;;;;;31.60;23.63;;;;;;;-0.12;100.00;94645.31;5007752;28;20073;-50
2021/01/31 03:07:46;;;;;;;26.10;16.20;;;;;;;-0.12;100.00;94650.50;5003888;28;20049;-46
2021/01/31 03:10:17;;;;;;;22.80;15.18;;;;;;;-0.14;100.00;94647.22;5007847;28;20113;-47
2021/01/31 03:12:48;;;;;;;26.27;18.08;;;;;;;-0.17;100.00;94655.25;5008240;28;20124;-49
2021/01/31 03:15:19;;;;;;;23.48;16.00;;;;;;;-0.15;100.00;94655.13;5007860;28;20037;-46
2021/01/31 03:17:46;;;;;;;;;;;;;;;-0.22;100.00;94643.59;5005560;28;20136;-47
2021/01/31 03:20:19;;;;;;;16.40;10.23;;;;;;;-0.19;100.00;94649.38;5007291;28;19968;-47
2021/01/31 03:22:51;;;;;;;23.98;16.73;;;;;;;-0.19;100.00;94661.50;5003699;28;20060;-44
2021/01/31 03:25:22;;;;;;;26.40;16.13;;;;;;;-0.15;100.00;94660.28;5007423;28;20092;-48
2021/01/31 03:27:48;;;;;;;20.92;12.30;;;;;;;-0.21;100.00;94663.38;5008011;28;20132;-45
2021/01/31 03:30:17;;;;;;;19.40;12.25;;;;;;;-0.23;100.00;94668.69;5007052;28;20046;-43
2021/01/31 03:32:48;;;;;;;23.90;14.50;;;;;;;-0.15;100.00;94665.47;5006227;28;20077;-46
2021/01/31 03:35:19;;;;;;;23.20;15.55;;;;;;;-0.14;100.00;94678.28;5008402;28;20041;-46
2021/01/31 03:37:51;;;;;;;19.45;12.48;;;;;;;-0.26;100.00;94674.13;5006235;28;20540;-47
2021/01/31 03:40:19;;;;;;;25.73;17.23;;;;;;;-0.18;100.00;94676.91;5005702;28;20125;-44
2021/01/31 03:42:46;;;;;;;20.10;10.88;;;;;;;-0.21;100.00;94686.69;5007374;28;20108;-49
2021/01/31 03:45:18;;;;;;;26.98;18.48;;;;;;;-0.24;100.00;94685.19;5006518;28;20041;-43
2021/01/31 03:47:49;;;;;;;29.38;21.27;;;;;;;-0.28;100.00;94694.94;5004115;28;20084;-45
2021/01/31 03:50:17;;;;;;;21.42;14.48;;;;;;;-0.23;100.00;94692.00;5004116;28;20505;-48
2021/01/31 03:52:45;;;;;;;19.98;12.63;;;;;;;-0.18;100.00;94692.44;5006763;28;20049;-45
2021/01/31 03:55:12;;;;;;;25.67;15.45;;;;;;;-0.12;100.00;94694.53;5005251;28;20038;-45
2021/01/31 03:57:44;;;;;;;27.38;18.75;;;;;;;-0.15;100.00;94699.16;5009838;28;20527;-50
2021/01/31 04:00:14;;;;;;;27.30;17.23;;;;;;;-0.01;100.00;94707.44;5001716;28;20137;-47
2021/01/31 04:02:44;;;;;;;28.52;19.90;;;;;;;-0.04;100.00;94707.69;5006317;28;20117;-44
2021/01/31 04:05:13;;;;;;;27.90;18.58;;;;;;;0.01;100.00;94709.94;5001785;28;20200;-46
2021/01/31 04:07:45;;;;;;;31.52;20.75;;;;;;;-0.03;100.00;94708.53;5006469;28;20506;-45
2021/01/31 04:10:13;;;;;;;36.60;23.55;;;;;;;-0.19;100.00;94713.28;5001588;28;20065;-45
2021/01/31 04:12:45;;;;;;;28.35;17.00;;;;;;;-0.19;100.00;94714.13;5008156;28;20046;-47
2021/01/31 04:15:19;;;;;;;28.83;17.35;;;;;;;-0.14;100.00;94713.75;5004064;28;20571;-46
2021/01/31 04:17:49;;;;;;;28.92;20.48;;;;;;;-0.32;100.00;94706.50;5007668;28;20107;-47
2021/01/31 04:20:17;;;;;;;30.05;19.00;;;;;;;-0.24;100.00;94718.84;5004962;28;20034;-47
2021/01/31 04:22:45;;;;;;;25.13;17.38;;;;;;;-0.38;100.00;94722.53;5008197;28;20416;-47
2021/01/31 04:25:12;;;;;;;25.80;18.75;;;;;;;-0.34;100.00;94721.34;5005479;28;20042;-46
2021/01/31 04:27:40;;;;;;;31.48;19.63;;;;;;;-0.28;100.00;94730.38;5009494;28;20045;-49
2021/01/31 04:30:09;;;;;;;32.40;20.65;;;;;;;-0.34;100.00;94731.69;5004128;28;20049;-46
2021/01/31 04:32:36;;;;;;;31.13;17.10;;;;;;;-0.39;100.00;94736.41;5006151;28;20582;-46
2021/01/31 04:35:04;;;;;;;25.52;14.88;;;;;;;-0.39;100.00;94739.00;5005043;28;20425;-45
2021/01/31 04:37:31;;;;;;;20.58;11.57;;;;;;;-0.41;100.00;94740.06;5006409;28;20112;-48
2021/01/31 04:39:58;;;;;;;23.45;13.07;;;;;;;-0.44;100.00;94730.78;5007326;28;20064;-43
2021/01/31 04:42:26;;;;;;;28.52;17.38;;;;;;;-0.41;100.00;94738.31;5007153;28;20409;-44
2021/01/31 04:44:53;;;;;;;12.55;7.45;;;;;;;-0.49;100.00;94748.44;5005342;28;20121;-42
2021/01/31 04:47:24;;;;;;;27.35;17.23;;;;;;;-0.50;100.00;94750.19;5006341;28;20129;-44
2021/01/31 04:53:05;;;;;;;;;;;;;;;-0.55;100.00;94744.56;5014652;28;20672;-45
2021/01/31 04:55:56;;;;;;;15.98;9.95;;;;;;;-0.63;100.00;94744.31;5014253;28;19963;-45
2021/01/31 04:58:24;;;;;;;;;;;;;;;-0.49;100.00;94753.59;5013098;28;20133;-47
2021/01/31 05:00:55;;;;;;;28.48;20.48;;;;;;;-0.68;100.00;94750.81;5015825;28;19996;-50
2021/01/31 05:03:22;;;;;;;24.98;15.05;;;;;;;-0.68;100.00;94754.22;5007284;28;20075;-46
2021/01/31 05:05:56;;;;;;;26.45;19.48;;;;;;;-0.73;100.00;94764.09;5013989;28;20637;-45
2021/01/31 05:08:26;;;;;;;27.67;18.40;;;;;;;-0.70;100.00;94752.69;5003285;28;20061;-43
2021/01/31 05:10:57;;;;;;;19.10;10.25;;;;;;;-0.67;100.00;94755.03;5013611;28;20046;-43
2021/01/31 05:13:33;;;;;;;28.88;19.13;;;;;;;-0.76;100.00;94752.22;5005990;28;20046;-45
2021/01/31 05:16:04;;;;;;;26.38;18.00;;;;;;;-0.75;100.00;94766.00;5013313;28;20494;-50
2021/01/31 05:18:34;;;;;;;23.60;13.82;;;;;;;-0.66;100.00;94774.78;5004962;28;20096;-46
2021/01/31 05:21:05;;;;;;;20.80;12.38;;;;;;;-0.65;100.00;94776.47;5013828;28;20453;-46
2021/01/31 05:23:34;;;;;;;27.05;15.73;;;;;;;-0.74;100.00;94772.81;4998934;28;20505;-49
2021/01/31 05:26:03;;;;;;;11.90;7.63;;;;;;;-0.79;100.00;94770.56;5015345;28;20068;-47
2021/01/31 05:28:31;;;;;;;23.63;13.45;;;;;;;-0.77;100.00;94779.03;5007002;28;20512;-46
2021/01/31 05:30:58;;;;;;;24.90;16.38;;;;;;;-0.73;100.00;94779.63;5013076;28;20403;-45
2021/01/31 05:33:25;;;;;;;21.00;12.98;;;;;;;-0.75;100.00;94779.75;4999011;28;20076;-46
2021/01/31 05:35:54;;;;;;;22.67;16.90;;;;;;;-0.78;100.00;94779.16;5014225;28;20051;-44
2021/01/31 05:38:35;;;;;;;18.17;11.93;;;;;;;-0.73;100.00;94789.97;4995415;28;20092;-43
2021/01/31 05:41:03;;;;;;;;;;;;;;;-0.72;100.00;94799.41;5009537;28;20074;-43
2021/01/31 05:43:30;;;;;;;21.75;14.43;;;;;;;-0.80;100.00;94796.56;5008643;28;19944;-50
2021/01/31 05:45:57;;;;;;;19.42;11.07;;;;;;;-0.79;100.00;94803.38;5000428;28;20038;-42
2021/01/31 05:48:34;;;;;;;26.33;17.42;;;;;;;-0.80;100.00;94801.72;5013671;28;20579;-42
2021/01/31 05:51:13;;;;;;;23.27;13.25;;;;;;;-0.67;100.00;94806.81;5011040;28;20618;-45
2021/01/31 05:53:40;;;;;;;23.02;13.75;;;;;;;-0.67;100.00;94809.38;5013931;28;20037;-45
2021/01/31 05:56:22;;;;;;;26.38;16.75;;;;;;;-0.73;100.00;94815.84;5009647;28;20380;-46
2021/01/31 05:58:50;;;;;;;21.15;10.48;;;;;;;-0.75;100.00;94817.75;5005054;28;20081;-49
2021/01/31 06:01:17;;;;;;;20.42;11.60;;;;;;;-0.82;100.00;94827.72;5008228;28;20038;-45
2021/01/31 06:03:44;;;;;;;25.30;16.23;;;;;;;-0.80;100.00;94830.19;4994594;28;20051;-51
2021/01/31 06:06:16;;;;;;;23.27;15.65;;;;;;;-0.86;100.00;94818.56;5010041;28;20063;-44
2021/01/31 06:08:46;;;;;;;24.38;14.25;;;;;;;-0.81;100.00;94819.03;5010250;28;20042;-49
2021/01/31 06:11:22;;;;;;;27.33;17.40;;;;;;;-0.84;100.00;94823.59;5006965;28;20054;-46
2021/01/31 06:14:01;;;;;;;27.70;18.63;;;;;;;-0.87;100.00;94819.47;5011835;28;20090;-51
2021/01/31 06:16:28;;;;;;;20.48;11.63;;;;;;;-0.78;100.00;94816.19;5010713;28;20050;-47
2021/01/31 06:19:01;;;;;;;21.85;13.00;;;;;;;-0.78;100.00;94815.38;5019591;28;20053;-46
2021/01/31 06:25:37;;;;;;;19.75;11.82;;;;;;;-0.88;100.00;94799.72;4996456;28;20412;-49
2021/01/31 06:28:24;;;;;;;20.75;11.27;;;;;;;-0.96;100.00;94807.25;5015070;28;20512;-43
2021/01/31 06:30:58;;;;;;;13.50;8.00;;;;;;;-0.88;100.00;94804.91;4999816;28;20103;-49
2021/01/31 06:33:26;;;;;;;19.33;11.40;;;;;;;-0.90;100.00;94805.94;5004467;28;20049;-47
2021/01/31 06:35:58;;;;;;;18.63;10.00;;;;;;;-0.90;100.00;94811.13;5005220;28;20101;-46
2021/01/31 06:38:32;;;;;;;24.42;16.40;;;;;;;-0.97;100.00;94808.16;5006375;28;20540;-51
2021/01/31 06:41:09;;;;;;;15.50;8.77;;;;;;;-0.95;100.00;94816.66;5002464;28;20069;-49
2021/01/31 06:43:49;;;;;;;23.23;14.88;;;;;;;-0.93;100.00;94819.13;5014745;28;20049;-46
2021/01/31 06:46:22;;;;;;;20.67;11.73;;;;;;;-0.86;100.00;94820.28;4992847;28;20049;-48
2021/01/31 06:48:56;;;;;;;22.13;11.88;;;;;;;-0.83;100.00;94820.88;5014645;28;20451;-44
2021/01/31 06:51:41;;;;;;;19.02;12.18;;;;;;;-0.87;100.00;94823.84;5001003;28;20072;-45
2021/01/31 06:54:38;;;;;;;15.43;8.30;;;;;;;-0.85;100.00;94820.19;5016020;28;20508;-46
2021/01/31 06:57:34;;;;;;;23.48;11.57;;;;;;;-0.83;100.00;94830.41;4998596;28;20109;-45
2021/01/31 07:00:21;;;;;;;18.60;10.00;;;;;;;-0.76;100.00;94837.63;5015091;28;20084;-47
2021/01/31 07:03:14;;;;;;;18.42;10.90;;;;;;;-0.79;100.00;94837.84;4999399;28;20544;-45
2021/01/31 07:06:24;;;;;;;24.95;13.98;;;;;;;-0.84;100.00;94847.72;5008294;28;20049;-50
2021/01/31 07:09:13;;;;;;;27.00;15.68;;;;;;;-0.77;100.00;94846.31;4930100;29;20063;-49
2021/01/31 07:11:44;;;;;;;27.05;17.52;;;;;;;-0.73;100.00;94859.84;5006619;28;20586;-48
2021/01/31 07:14:32;;;;;;;27.13;16.52;;;;;;;-0.65;100.00;94859.28;5011808;28;20044;-51
2021/01/31 07:17:05;;;;;;;25.50;14.20;;;;;;;-0.46;100.00;94856.94;5001690;28;20054;-49
2021/01/31 07:19:36;;;;;;;22.77;15.57;;;;;;;-0.66;100.00;94852.44;5003540;28;20058;-47
2021/01/31 07:22:07;;;;;;;26.02;15.90;;;;;;;-0.70;100.00;94858.78;5000393;28;20054;-42
2021/01/31 07:24:40;;;;;;;25.83;15.80;;;;;;;-0.64;100.00;94860.91;5005300;28;20042;-42
2021/01/31 07:27:17;;;;;;;17.42;9.68;;;;;;;-0.59;100.00;94864.78;5012414;28;20045;-42
2021/01/31 07:30:01;;;;;;;27.33;17.55;;;;;;;-0.49;100.00;94881.28;5012838;28;20559;-43
2021/01/31 07:32:40;;;;;;;20.00;10.23;;;;;;;-0.60;100.00;94870.09;5008755;28;20045;-41
2021/01/31 07:35:10;;;;;;;23.88;14.02;;;;;;;-0.54;100.00;94878.22;5006391;28;20092;-45
2021/01/31 07:37:38;;;;;;;28.88;17.27;;;;;;;-0.35;100.00;94877.63;5011695;28;20121;-42
2021/01/31 07:40:08;;;;;;;28.15;16.38;;;;;;;-0.42;100.00;94886.81;5007206;28;20049;-44
2021/01/31 07:42:36;;;;;;;27.13;16.20;;;;;;;-0.42;100.00;94889.41;5004546;28;20053;-43
2021/01/31 07:45:08;;;;;;;26.83;14.40;;;;;;;-0.39;100.00;94884.00;5002702;28;20066;-42
2021/01/31 07:47:36;;;;;;;27.15;15.18;;;;;;;-0.33;100.00;94893.06;5006253;28;20053;-42
2021/01/31 07:50:38;;;;;;;27.63;14.93;;;;;;;-0.31;100.00;94892.03;5011772;28;20124;-42
2021/01/31 07:53:05;;;;;;;19.77;12.60;;;;;;;-0.44;100.00;94883.53;4969247;28;20050;-43
2021/01/31 07:55:35;;;;;;;18.05;10.88;;;;;;;-0.41;100.00;94893.66;5000664;28;20046;-44
2021/01/31 07:58:11;;;;;;;27.85;16.23;;;;;;;-0.42;100.00;94891.19;5005752;28;20476;-43
2021/01/31 08:00:41;;;;;;;21.73;11.75;;;;;;;-0.37;100.00;94892.50;4989674;28;20614;-42
2021/01/31 08:03:25;;;;;;;30.35;17.35;;;;;;;-0.16;100.00;94889.19;5013790;28;20109;-41
2021/01/31 08:06:09;;;;;;;27.77;15.05;;;;;;;-0.14;100.00;94908.00;5003067;28;20050;-42
2021/01/31 08:08:41;;;;;;;24.85;13.32;;;;;;;-0.07;100.00;94898.81;5000273;28;20414;-43
2021/01/31 08:11:27;;;;;;;26.48;15.70;;;;;;;0.11;100.00;94904.38;5011828;28;20455;-42
2021/01/31 08:13:54;;;;;;;27.98;15.85;;;;;;;0.07;100.00;94908.13;4997388;28;20066;-42
2021/01/31 08:16:41;;;;;;;26.73;15.82;;;;;;;0.04;100.00;94913.56;5007508;28;22940;-41
2021/01/31 08:19:12;;;;;;;29.10;17.17;;;;;;;-0.09;100.00;94913.69;4993634;28;20103;-41
2021/01/31 08:21:46;;;;;;;;;;;;;;;-0.14;100.00;94913.19;5006756;28;20137;-43
2021/01/31 08:24:13;;;;;;;22.02;13.18;;;;;;;-0.34;100.00;94918.16;5006766;28;19928;-43
2021/01/31 08:26:47;;;;;;;20.85;11.20;;;;;;;-0.34;100.00;94915.56;5000565;28;20136;-44
2021/01/31 08:29:26;;;;;;;25.38;15.70;;;;;;;-0.27;100.00;94915.91;5000504;28;20049;-42
2021/01/31 08:32:14;;;;;;;22.63;14.35;;;;;;;-0.27;100.00;94910.75;5014010;28;20666;-44
2021/01/31 08:35:17;;;;;;;26.10;15.52;;;;;;;-0.07;100.00;94922.16;4995742;28;20074;-43
2021/01/31 08:37:48;;;;;;;22.98;14.38;;;;;;;0.01;99.55;94927.56;5004793;28;20137;-42
2021/01/31 08:40:18;;;;;;;31.00;19.35;;;;;;;0.03;99.92;94932.63;5002458;28;20073;-45
2021/01/31 08:42:56;;;;;;;30.70;16.38;;;;;;;0.11;99.08;94932.88;5001089;28;20430;-43
2021/01/31 08:45:38;;;;;;;28.90;14.60;;;;;;;0.26;97.54;94933.44;5004520;28;20042;-41
2021/01/31 08:48:05;;;;;;;65.47;33.65;;;;;;;0.32;97.82;94941.56;5010023;28;20099;-43
2021/01/31 08:50:32;;;;;;;;;;;;;;;0.49;97.98;94937.66;5011629;28;20530;-44
2021/01/31 08:53:03;;;;;;;27.50;16.30;;;;;;;0.64;97.57;94939.03;5008793;28;19925;-41
2021/01/31 08:55:30;;;;;;;29.58;18.17;;;;;;;0.49;98.25;94939.44;5016260;28;20057;-46
2021/01/31 08:58:00;;;;;;;25.67;14.75;;;;;;;0.38;96.74;94933.31;5005416;28;20504;-46
2021/01/31 09:00:28;;;;;;;23.90;14.43;;;;;;;0.55;96.49;94938.94;5001708;28;20054;-42
2021/01/31 09:02:56;;;;;;;27.15;14.43;;;;;;;0.41;96.08;94937.41;5004659;28;20493;-48
2021/01/31 09:05:23;;;;;;;31.83;18.73;;;;;;;0.82;96.68;94941.91;5003666;28;20066;-45
2021/01/31 09:07:52;;;;;;;26.20;16.88;;;;;;;0.81;93.86;94947.25;5002054;28;20034;-46
2021/01/31 09:10:30;;;;;;;26.58;18.23;;;;;;;0.73;94.93;94941.84;5010636;28;20072;-47
2021/01/31 09:13:19;;;;;;;23.75;16.70;;;;;;;0.61;93.20;94948.81;5001364;28;20632;-45
2021/01/31 09:15:46;;;;;;;25.92;17.98;;;;;;;0.40;93.39;94944.38;5006599;28;20054;-44
2021/01/31 09:18:19;;;;;;;23.50;12.80;;;;;;;0.45;94.40;94946.63;5011223;28;20101;-50
2021/01/31 09:20:46;;;;;;;28.02;18.05;;;;;;;0.69;93.33;94951.66;4998463;28;20046;-48
2021/01/31 09:23:17;;;;;;;30.75;18.50;;;;;;;0.90;91.95;94960.31;5003139;28;20617;-42
2021/01/31 09:25:45;;;;;;;25.52;13.50;;;;;;;0.49;91.41;94963.59;5008828;28;20096;-45
2021/01/31 09:28:19;;;;;;;27.73;16.67;;;;;;;0.64;92.42;94956.38;5006355;28;20052;-47
2021/01/31 09:30:46;;;;;;;28.73;17.98;;;;;;;0.58;91.71;94962.84;5011778;28;20050;-46
2021/01/31 09:33:21;;;;;;;24.63;13.77;;;;;;;0.88;91.47;94959.59;5004111;28;20038;-45
2021/01/31 09:35:49;;;;;;;26.02;16.17;;;;;;;1.20;90.87;94958.78;5000941;28;20071;-44
2021/01/31 09:38:23;;;;;;;26.88;16.23;;;;;;;1.37;90.52;94957.41;5003039;28;20456;-43
2021/01/31 09:40:53;;;;;;;34.85;22.30;;;;;;;1.10;90.99;94956.13;5013756;28;20042;-44
2021/01/31 09:43:23;;;;;;;23.20;14.83;;;;;;;0.81;92.17;94965.41;4994799;28;20054;-42
2021/01/31 09:45:53;;;;;;;23.10;14.73;;;;;;;0.78;92.81;94969.06;5012631;28;20049;-44
2021/01/31 09:48:22;;;;;;;26.13;18.40;;;;;;;1.08;91.12;94964.97;5019533;28;20042;-45
2021/01/31 09:50:56;;;;;;;26.38;17.02;;;;;;;1.02;91.44;94968.06;5011353;28;20050;-42
2021/01/31 09:53:30;;;;;;;24.92;14.65;;;;;;;0.97;91.15;94967.63;4997022;28;20642;-43
2021/01/31 09:55:58;;;;;;;26.58;16.35;;;;;;;0.84;91.57;94958.19;5014858;28;20105;-42
2021/01/31 09:58:28;;;;;;;23.42;14.15;;;;;;;0.71;92.40;94947.16;5007139;28;20077;-45
2021/01/31 10:00:55;;;;;;;24.17;16.90;;;;;;;0.92;92.09;94955.81;5010710;28;20570;-44
2021/01/31 10:03:30;;;;;;;24.30;16.23;;;;;;;1.37;89.53;94947.00;5006469;28;20487;-43
2021/01/31 10:06:06;;;;;;;23.52;16.58;;;;;;;0.68;90.29;94948.22;5005080;28;20074;-44
2021/01/31 10:08:33;;;;;;;21.52;12.93;;;;;;;0.97;89.83;94962.44;5015686;28;20060;-43
2021/01/31 10:11:26;;;;;;;26.02;15.68;;;;;;;1.39;89.13;94955.50;5014737;28;20072;-42
2021/01/31 10:13:55;;;;;;;24.42;14.43;;;;;;;1.26;88.10;94954.88;5011274;28;20057;-43
2021/01/31 10:16:24;;;;;;;26.30;16.70;;;;;;;1.62;87.75;94953.63;5007505;28;20050;-46
2021/01/31 10:18:51;;;;;;;25.45;16.30;;;;;;;1.39;86.91;94961.53;5007935;28;20084;-43
2021/01/31 10:21:24;;;;;;;29.58;17.77;;;;;;;1.35;87.37;94959.31;5006954;28;20034;-42
2021/01/31 10:24:01;;;;;;;25.27;17.65;;;;;;;1.48;86.76;94965.16;5007266;28;20097;-45
2021/01/31 10:26:29;;;;;;;27.88;18.05;;;;;;;1.36;87.93;94955.75;5011227;28;20104;-42
2021/01/31 10:28:58;;;;;;;26.42;15.82;;;;;;;1.72;86.26;94961.47;5011804;28;20049;-47
2021/01/31 10:31:27;;;;;;;25.92;15.82;;;;;;;1.88;85.14;94970.44;5012340;28;20100;-46
2021/01/31 10:33:53;;;;;;;;;;;;;;;1.59;84.38;94967.69;5014192;28;20048;-45
2021/01/31 10:36:24;;;;;;;;;;;;;;;1.42;86.38;94965.66;5007000;28;19921;-45
2021/01/31 10:38:51;;;;;;;;;;;;;;;1.31;87.38;94965.72;5008742;28;19961;-46
2021/01/31 10:41:18;;;;;;;;;;;;;;;1.29;86.97;94978.81;5008181;28;20551;-44
2021/01/31 10:43:53;;;;;;;;;;;;;;;1.34;87.38;94971.47;5016211;28;20380;-45
2021/01/31 10:46:20;;;;;;;;;;;;;;;1.33;87.64;94963.78;5002607;28;19921;-42
2021/01/31 10:48:46;;;;;;;;;;;;;;;1.28;87.00;94969.38;5016515;28;19995;-47
2021/01/31 10:51:13;;;;;;;;;;;;;;;1.75;85.37;94969.81;5005415;28;20376;-43
2021/01/31 10:53:40;;;;;;;;;;;;;;;1.84;84.31;94960.44;5009145;28;20332;-43
2021/01/31 10:56:07;;;;;;;;;;;;;;;1.86;84.64;94967.16;5007284;28;20338;-43
2021/01/31 10:58:33;;;;;;;;;;;;;;;2.20;83.43;94961.69;5002811;28;19921;-48
2021/01/31 11:01:01;;;;;;;;;;;;;;;1.95;84.33;94952.56;5005168;28;19922;-48
2021/01/31 11:03:28;;;;;;;;;;;;;;;1.82;85.88;94962.34;5012905;28;19921;-48
2021/01/31 11:05:55;;;;;;;;;;;;;;;1.90;85.28;94962.53;5010328;28;20611;-44
2021/01/31 11:08:22;;;;;;;;;;;;;;;1.53;85.26;94967.38;4992879;28;19921;-43
2021/01/31 11:10:49;;;;;;;;;;;;;;;1.88;85.99;94967.03;4998006;28;19921;-46
2021/01/31 11:13:15;;;;;;;;;;;;;;;1.82;84.74;94965.75;5016830;28;19944;-44
2021/01/31 11:15:42;;;;;;;;;;;;;;;1.62;85.52;94971.81;5002572;28;19921;-41
2021/01/31 11:18:09;;;;;;;;;;;;;;;1.78;87.28;94973.94;5005463;28;20382;-44
2021/01/31 11:20:36;;;;;;;;;;;;;;;1.59;87.39;94977.25;5009253;28;20416;-46
2021/01/31 11:23:03;;;;;;;;;;;;;;;1.69;87.04;94977.28;4999444;28;19927;-44
2021/01/31 11:25:29;;;;;;;;;;;;;;;1.75;87.44;94963.81;5008153;28;20354;-42
2021/01/31 11:27:56;;;;;;;;;;;;;;;1.64;87.75;94969.91;5022500;28;19930;-39
2021/01/31 11:30:24;;;;;;;;;;;;;;;1.72;86.26;94961.47;5013689;28;19930;-42
2021/01/31 11:32:50;;;;;;;;;;;;;;;1.71;86.06;94959.81;5011378;28;19960;-39
2021/01/31 11:35:18;;;;;;;;;;;;;;;2.12;85.64;94951.97;5017015;28;19921;-42
2021/01/31 11:37:45;;;;;;;;;;;;;;;1.92;85.51;94934.63;4995184;28;20057;-41
2021/01/31 11:40:12;;;;;;;;;;;;;;;2.53;83.52;94931.16;5008880;28;19921;-43
2021/01/31 11:42:38;;;;;;;;;;;;;;;1.99;85.17;94921.94;5008488;28;19968;-41
2021/01/31 11:45:06;;;;;;;;;;;;;;;1.54;84.96;94917.06;5011576;28;19927;-42
2021/01/31 11:47:33;;;;;;;;;;;;;;;2.19;83.75;94931.47;5008849;28;20494;-42
2021/01/31 11:50:03;;;;;;;;;;;;;;;2.10;84.67;94929.66;5008250;28;19928;-45
2021/01/31 11:52:30;;;;;;;;;;;;;;;2.33;84.80;94940.69;5015922;28;19952;-40
2021/01/31 11:54:57;;;;;;;;;;;;;;;1.64;85.37;94936.13;5007362;28;19921;-46
2021/01/31 11:57:24;;;;;;;;;;;;;;;2.27;85.00;94944.66;5012030;28;19960;-46